Startpagina
METAR-TAF:

METAR-TAF

Vliegvelden :

Luchthaven Aba Tenna Dejazmach Yilma

Dire Dawa, Ethiopië

breedte: 09-36N, lengte: 041-52E, hoogte: 1146 m

METAR: ontbreekt

Tijdstip: 13:49 (10:49 UTC)

Verwachting

Dit bericht is 7 uur en het 19 minuten geleden gemaakt, om 03:30 UTC
Verwachting geldig van 25 om 06 UTC tot 26 om 12 UTC
Wind 6 kt uit het zuiden
Zicht 10 km of meer
Gebroken wolken op 2500 ft
Verspreide wolken op 8000 ft
Wijzigt naar
van 25 om 06 UTC tot 25 om 09 UTC
Zicht: 8000 m
Gebroken wolken op 2300 ft
lichte regen
Wijzigt naar
van 25 om 14 UTC tot 25 om 16 UTC
Zicht: 7000 m
Gebroken wolken op 2400 ft
lichte regenbuien,

TAF: HADR 250330Z 2506/2612 17006KT 9999 BKN025 SCT080 BECMG 2506/2509 8000 -RA BKN023 BECMG 2514/2516 7000 -SHRA BKN024

Waarnemingen en weersverwachtingen van meer dan 4000 vliegvelden (METAR en TAF).

De beschikbare stations zijn de gele en rode punten op de kaart.

Ga met uw muis naar het station om de naam te zien.

Klik dan om waarnemingen en weersverwachtingen te zien.

kaart wijzigen: klik op de groene knoppen met een zwart kruis om in te zoomen, op de groene knop met een streepje om uit te zoomen of op de groene pijlen voor aangrenzende kaarten.


METAR-TAF: